Αρχική σελίδα
METAR-TAF:

METAR-TAF

Αεροδρόμια :

Angoon, Αλάσκα, Ηνωμένες Πολιτείες Αμερικής

γεωγραφικό πλάτος: 57-30N, γεωγραφικό μήκος: 134-35W, υψόμετρο: 0 μ

Παρών καιρός

Η αναφορά έγινε 1 ώρα και 0 λεπτά πριν, στις 01:56 UTC
Άνεμος 5 kt από Α
Θερμοκρασία 5°C
Υγρασία 87%
Πίεση 1021 hPa
Ορατότητα: 16.1 χλμ
Νεφοσκεπής σε ύψος 1800 πόδια
Ασθενής βροχή

METAR: PAGN 260156Z AUTO 08005KT 10SM -RA OVC018 05/03 A3016 RMK AO2 RAB12 SLP203 P0001 T00500033

Χρόνος: 18:56 (02:56 UTC)


TAF: λείπει

Μετεωρολογικές αναφορές και προγνώσεις για περισσότερα από 4000 αεροδρόμια (δελτία METAR και TAF).

Οι διαθέσιμοι σταθμοί απεικονίζονται στο χάρτη με κίτρινες και κόκκινες κουκκίδες.

Μετακινήστε το ποντίκι πάνω από τις κουκκίδες για να δείτε το όνομα του σταθμού.

Στη συνέχεια, κάντε κλικ για να δείτε τις μετεωρολογικές αναφορές και τις προγνώσεις καιρού.

Για να αλλάξετε το χάρτη: κάντε κλικ στα πράσινα κουμπιά με τον μαύρο σταυρό για να ζουμάρετε, στο πράσινο κουμπί με την παύλα για να αφαιρέσετε το ζουμ ή στα πράσινα βέλη για να αντιπαραβάλλετε χάρτες.


METAR-TAF: